Time;durP1;ratioP1;P1;durP2;ratioP2;P2;SDS_P1;SDS_P2;PMS_P1;PMS_P2;Temp;Humidity;BMP_temperature;BMP_pressure;BME280_temperature;BME280_humidity;BME280_pressure;Samples;Min_cycle;Max_cycle;Signal;HPM_P1;HPM_P2
2021/12/21 00:00:11;;;;;;;18.52;6.28;;;;;;;;;;5067677;28;20061;-62
2021/12/21 00:02:37;;;;;;;17.83;6.80;;;;;;;;;;5062025;28;20496;-63
2021/12/21 00:05:04;;;;;;;20.00;6.22;;;;;;;;;;5066810;28;20053;-63
2021/12/21 00:07:30;;;;;;;15.40;7.32;;;;;;;;;;5070617;28;20148;-62
2021/12/21 00:09:56;;;;;;;16.88;6.07;;;;;;;;;;5070625;28;20053;-63
2021/12/21 00:12:26;;;;;;;23.17;7.35;;;;;;;;;;5070122;28;20080;-63
2021/12/21 00:20:25;;;;;;;16.50;8.18;;;;;;;;;;5055198;28;20073;-62
2021/12/21 00:25:21;;;;;;;16.70;7.03;;;;;;;;;;5050061;28;20058;-62
2021/12/21 00:27:51;;;;;;;22.67;7.28;;;;;;;;;;5049726;28;20085;-63
2021/12/21 00:30:17;;;;;;;18.25;7.30;;;;;;;;;;5067889;28;20488;-63
2021/12/21 00:32:44;;;;;;;23.58;7.03;;;;;;;;;;5058822;28;20064;-63
2021/12/21 00:35:10;;;;;;;19.75;7.20;;;;;;;;;;5062321;28;20142;-62
2021/12/21 00:37:40;;;;;;;16.02;6.70;;;;;;;;;;5068748;28;20554;-62
2021/12/21 00:40:08;;;;;;;16.85;6.50;;;;;;;;;;5066012;28;20053;-63
2021/12/21 00:42:34;;;;;;;14.57;6.65;;;;;;;;;;5068873;28;20060;-63
2021/12/21 00:45:01;;;;;;;17.00;7.05;;;;;;;;;;5069686;28;20481;-63
2021/12/21 00:47:27;;;;;;;17.25;7.45;;;;;;;;;;5065407;28;20099;-63
2021/12/21 00:50:02;;;;;;;16.35;6.90;;;;;;;;;;5066358;28;20049;-63
2021/12/21 00:52:29;;;;;;;17.15;6.93;;;;;;;;;;5054082;28;20068;-62
2021/12/21 00:54:55;;;;;;;18.95;7.32;;;;;;;;;;5059855;28;20531;-62
2021/12/21 00:57:21;;;;;;;16.83;7.25;;;;;;;;;;5054466;28;20559;-62
2021/12/21 00:59:48;;;;;;;15.82;7.53;;;;;;;;;;5058047;28;20057;-62
2021/12/21 01:02:14;;;;;;;17.75;7.72;;;;;;;;;;5067963;28;20677;-62
2021/12/21 01:04:46;;;;;;;22.23;8.32;;;;;;;;;;5061030;28;20133;-63
2021/12/21 01:12:31;;;;;;;15.43;7.40;;;;;;;;;;5063989;28;20139;-61
2021/12/21 01:17:31;;;;;;;16.88;6.97;;;;;;;;;;5068246;28;20578;-61
2021/12/21 01:20:04;;;;;;;16.65;7.30;;;;;;;;;;5066778;28;20400;-61
2021/12/21 01:25:38;;;;;;;22.27;7.70;;;;;;;;;;5068846;28;20056;-62
2021/12/21 01:28:54;;;;;;;19.33;7.20;;;;;;;;;;5050464;28;20045;-61
2021/12/21 01:31:20;;;;;;;14.02;6.55;;;;;;;;;;5059365;28;20056;-61
2021/12/21 01:36:25;;;;;;;12.13;5.55;;;;;;;;;;5060876;28;20053;-61
2021/12/21 01:39:11;;;;;;;9.45;5.18;;;;;;;;;;5065328;28;20071;-61
2021/12/21 01:42:01;;;;;;;11.60;5.15;;;;;;;;;;5055662;28;20518;-62
2021/12/21 01:49:59;;;;;;;11.13;4.78;;;;;;;;;;5067154;28;20072;-63
2021/12/21 01:52:27;;;;;;;11.55;5.57;;;;;;;;;;5068439;28;20055;-62
2021/12/21 01:54:54;;;;;;;13.07;5.90;;;;;;;;;;5067472;28;20060;-63
2021/12/21 01:57:21;;;;;;;11.00;5.10;;;;;;;;;;5059723;28;20060;-62
2021/12/21 01:59:48;;;;;;;15.48;5.53;;;;;;;;;;5055662;28;20055;-61
2021/12/21 02:02:17;;;;;;;15.25;5.38;;;;;;;;;;5067217;28;20604;-61
2021/12/21 02:04:44;;;;;;;14.00;5.32;;;;;;;;;;5068212;28;20064;-61
2021/12/21 02:07:11;;;;;;;10.73;5.95;;;;;;;;;;5068997;28;20147;-61
2021/12/21 02:09:37;;;;;;;12.93;5.68;;;;;;;;;;5055599;28;20204;-62
2021/12/21 02:12:05;;;;;;;13.73;5.90;;;;;;;;;;5058017;28;20075;-62
2021/12/21 02:14:32;;;;;;;15.95;6.43;;;;;;;;;;5060945;28;20097;-61
2021/12/21 02:19:55;;;;;;;11.68;5.28;;;;;;;;;;5065333;28;20053;-64
2021/12/21 02:22:24;;;;;;;17.10;6.32;;;;;;;;;;5068004;28;20057;-62
2021/12/21 02:25:02;;;;;;;15.15;5.28;;;;;;;;;;5063865;28;20053;-61
2021/12/21 02:27:41;;;;;;;11.98;5.97;;;;;;;;;;5056225;28;20060;-63
2021/12/21 02:30:08;;;;;;;10.70;6.00;;;;;;;;;;5053045;28;20085;-61
2021/12/21 02:32:34;;;;;;;18.00;6.13;;;;;;;;;;5067794;28;20060;-61
2021/12/21 02:35:01;;;;;;;15.55;6.78;;;;;;;;;;5054846;28;20050;-61
2021/12/21 02:37:27;;;;;;;15.68;5.80;;;;;;;;;;5053028;28;20140;-61
2021/12/21 02:39:53;;;;;;;18.83;6.47;;;;;;;;;;5047874;28;20144;-61
2021/12/21 02:42:20;;;;;;;16.15;6.38;;;;;;;;;;5052242;28;20136;-62
2021/12/21 02:44:47;;;;;;;18.85;6.35;;;;;;;;;;5067639;28;20112;-62
2021/12/21 02:47:13;;;;;;;15.40;6.70;;;;;;;;;;5054708;28;20051;-61
2021/12/21 02:49:39;;;;;;;15.60;6.63;;;;;;;;;;5066007;28;20517;-62
2021/12/21 02:52:06;;;;;;;18.08;7.15;;;;;;;;;;5059694;28;20231;-61
2021/12/21 02:54:32;;;;;;;19.13;7.10;;;;;;;;;;5047996;28;20452;-61
2021/12/21 02:56:59;;;;;;;18.33;7.10;;;;;;;;;;5063056;28;20065;-62
2021/12/21 02:59:25;;;;;;;16.33;7.63;;;;;;;;;;5067240;28;21541;-61
2021/12/21 03:01:51;;;;;;;13.35;5.78;;;;;;;;;;5064316;28;20529;-61
2021/12/21 03:04:18;;;;;;;13.77;6.40;;;;;;;;;;5066133;28;20045;-61
2021/12/21 03:07:17;;;;;;;15.75;6.25;;;;;;;;;;5063808;28;20053;-62
2021/12/21 03:09:39;;;;;;;17.98;6.47;;;;;;;;;;5057951;28;20137;-61
2021/12/21 03:12:14;;;;;;;17.25;6.43;;;;;;;;;;5061551;28;20156;-62
2021/12/21 03:14:40;;;;;;;16.48;6.20;;;;;;;;;;5060989;28;20049;-61
2021/12/21 03:17:07;;;;;;;16.55;6.72;;;;;;;;;;5056484;28;20511;-61
2021/12/21 03:19:34;;;;;;;14.15;6.40;;;;;;;;;;5065593;28;20055;-61
2021/12/21 03:22:00;;;;;;;21.00;7.43;;;;;;;;;;5066111;28;20096;-61
2021/12/21 03:24:27;;;;;;;15.63;6.25;;;;;;;;;;5066123;28;20053;-60
2021/12/21 03:26:53;;;;;;;14.60;5.72;;;;;;;;;;5053757;28;20056;-61
2021/12/21 03:29:19;;;;;;;18.45;7.57;;;;;;;;;;5054779;28;20045;-61
2021/12/21 03:31:45;;;;;;;14.43;6.78;;;;;;;;;;5067087;28;20053;-61
2021/12/21 03:34:12;;;;;;;17.92;6.68;;;;;;;;;;5065898;28;20049;-61
2021/12/21 03:36:40;;;;;;;20.98;6.55;;;;;;;;;;5062606;28;20163;-61
2021/12/21 03:39:10;;;;;;;22.92;6.70;;;;;;;;;;5059969;28;20054;-62
2021/12/21 03:41:44;;;;;;;22.83;7.13;;;;;;;;;;5054422;28;20054;-61
2021/12/21 03:44:11;;;;;;;20.10;6.55;;;;;;;;;;5059094;28;20049;-61
2021/12/21 03:46:45;;;;;;;19.98;6.25;;;;;;;;;;5065349;28;20059;-62
2021/12/21 03:52:24;;;;;;;16.60;6.50;;;;;;;;;;5051459;28;20529;-61
2021/12/21 03:55:01;;;;;;;15.73;5.90;;;;;;;;;;5064374;28;20057;-61
2021/12/21 03:57:28;;;;;;;19.58;6.55;;;;;;;;;;5065782;28;20041;-61
2021/12/21 03:59:55;;;;;;;19.15;6.55;;;;;;;;;;5066485;28;20053;-62
2021/12/21 04:02:24;;;;;;;15.85;6.07;;;;;;;;;;5066369;28;20152;-61
2021/12/21 04:04:52;;;;;;;16.50;6.38;;;;;;;;;;5070148;28;20053;-61
2021/12/21 04:07:18;;;;;;;22.77;6.30;;;;;;;;;;5069550;28;20151;-62
2021/12/21 04:09:44;;;;;;;17.77;6.35;;;;;;;;;;5067360;28;20049;-61
2021/12/21 04:12:11;;;;;;;14.10;5.55;;;;;;;;;;5062321;28;20849;-62
2021/12/21 04:14:38;;;;;;;17.17;6.07;;;;;;;;;;5055239;28;20264;-61
2021/12/21 04:17:16;;;;;;;14.75;5.65;;;;;;;;;;5055769;28;20052;-61
2021/12/21 04:19:43;;;;;;;16.45;6.43;;;;;;;;;;5065721;28;20526;-61
2021/12/21 04:22:09;;;;;;;14.88;6.40;;;;;;;;;;5063602;28;20057;-61
2021/12/21 04:24:35;;;;;;;20.63;6.63;;;;;;;;;;5069700;28;20510;-62
2021/12/21 04:27:02;;;;;;;16.17;6.15;;;;;;;;;;5068974;28;20491;-61
2021/12/21 04:29:28;;;;;;;22.15;6.32;;;;;;;;;;5067357;28;20053;-61
2021/12/21 04:31:54;;;;;;;14.20;5.80;;;;;;;;;;5052564;28;20148;-62
2021/12/21 04:34:21;;;;;;;13.98;5.07;;;;;;;;;;5068615;28;20057;-61
2021/12/21 04:36:47;;;;;;;14.10;4.93;;;;;;;;;;5068921;28;20049;-62
2021/12/21 04:39:31;;;;;;;18.20;5.32;;;;;;;;;;5058829;28;20076;-61
2021/12/21 04:41:57;;;;;;;14.73;5.50;;;;;;;;;;5064641;28;20160;-61
2021/12/21 04:44:29;;;;;;;14.10;6.00;;;;;;;;;;5068944;28;20507;-61
2021/12/21 04:46:55;;;;;;;13.77;5.93;;;;;;;;;;5067043;28;20049;-62
2021/12/21 04:49:22;;;;;;;19.02;6.40;;;;;;;;;;5053073;28;20496;-61
2021/12/21 04:51:48;;;;;;;17.35;7.57;;;;;;;;;;5059424;28;20057;-61
2021/12/21 04:54:14;;;;;;;14.82;6.57;;;;;;;;;;5068690;28;20089;-61
2021/12/21 04:56:41;;;;;;;14.43;6.50;;;;;;;;;;5065883;28;20501;-61
2021/12/21 04:59:07;;;;;;;12.52;6.43;;;;;;;;;;5069446;28;20057;-62
2021/12/21 05:01:33;;;;;;;19.92;6.72;;;;;;;;;;5060938;28;20132;-61
2021/12/21 05:04:00;;;;;;;14.57;6.63;;;;;;;;;;5063021;28;20053;-61
2021/12/21 05:06:26;;;;;;;14.10;5.65;;;;;;;;;;5067296;28;20059;-61
2021/12/21 05:09:04;;;;;;;16.25;6.60;;;;;;;;;;5053399;28;20053;-62
2021/12/21 05:11:34;;;;;;;14.20;5.18;;;;;;;;;;5061241;28;20150;-61
2021/12/21 05:14:01;;;;;;;13.35;5.72;;;;;;;;;;5068214;28;20049;-62
2021/12/21 05:16:27;;;;;;;13.20;5.75;;;;;;;;;;5054140;28;20067;-62
2021/12/21 05:18:54;;;;;;;15.32;5.70;;;;;;;;;;5047793;28;20540;-61
2021/12/21 05:21:20;;;;;;;12.90;5.50;;;;;;;;;;5054416;28;20053;-61
2021/12/21 05:23:46;;;;;;;13.65;5.20;;;;;;;;;;5068928;28;20059;-62
2021/12/21 05:26:12;;;;;;;12.25;5.28;;;;;;;;;;5067067;28;20059;-62
2021/12/21 05:28:39;;;;;;;13.05;5.07;;;;;;;;;;5056616;28;20135;-61
2021/12/21 05:31:05;;;;;;;8.85;4.60;;;;;;;;;;5067425;28;20578;-62
2021/12/21 05:33:31;;;;;;;12.57;4.82;;;;;;;;;;5050429;28;20084;-61
2021/12/21 05:35:58;;;;;;;12.63;5.82;;;;;;;;;;5064563;28;20049;-61
2021/12/21 05:38:31;;;;;;;12.65;5.28;;;;;;;;;;5066886;28;20526;-61
2021/12/21 05:41:00;;;;;;;11.57;5.10;;;;;;;;;;5066842;28;20103;-62
2021/12/21 05:43:27;;;;;;;12.32;5.20;;;;;;;;;;5066647;28;20059;-61
2021/12/21 05:45:53;;;;;;;10.73;4.95;;;;;;;;;;5051262;28;20083;-61
2021/12/21 05:48:20;;;;;;;11.85;4.68;;;;;;;;;;5068133;28;20529;-60
2021/12/21 05:50:47;;;;;;;11.73;5.07;;;;;;;;;;5067844;28;20065;-61
2021/12/21 05:53:13;;;;;;;9.98;4.93;;;;;;;;;;5067810;28;20095;-60
2021/12/21 05:55:39;;;;;;;11.13;4.88;;;;;;;;;;5068165;28;20526;-61
2021/12/21 05:58:06;;;;;;;12.27;4.40;;;;;;;;;;5065550;28;20080;-61
2021/12/21 06:00:34;;;;;;;12.27;4.45;;;;;;;;;;5066204;28;20990;-61
2021/12/21 06:03:01;;;;;;;13.98;4.30;;;;;;;;;;5055884;28;20053;-61
2021/12/21 06:05:28;;;;;;;10.40;4.47;;;;;;;;;;5048699;28;20077;-61
2021/12/21 06:07:55;;;;;;;10.10;4.43;;;;;;;;;;5063387;28;20057;-61
2021/12/21 06:10:28;;;;;;;8.82;4.55;;;;;;;;;;5068250;28;20057;-61
2021/12/21 06:13:23;;;;;;;13.00;4.80;;;;;;;;;;5065863;28;20055;-61
2021/12/21 06:26:43;;;;;;;13.40;4.47;;;;;;;;;;5066584;28;20057;-62
2021/12/21 06:29:09;;;;;;;8.32;4.53;;;;;;;;;;5059876;28;20525;-62
2021/12/21 06:31:36;;;;;;;12.55;4.90;;;;;;;;;;5048436;28;20107;-61
2021/12/21 06:34:02;;;;;;;13.07;5.00;;;;;;;;;;5065498;28;20045;-62
2021/12/21 06:36:29;;;;;;;11.82;4.68;;;;;;;;;;5062917;28;20057;-62
2021/12/21 06:38:55;;;;;;;15.85;5.88;;;;;;;;;;5065957;28;20053;-62
2021/12/21 06:41:21;;;;;;;16.65;5.65;;;;;;;;;;5067143;28;20139;-61
2021/12/21 06:43:48;;;;;;;14.48;5.03;;;;;;;;;;5066769;28;20049;-62
2021/12/21 06:51:44;;;;;;;10.77;5.03;;;;;;;;;;5066490;28;20061;-62
2021/12/21 06:54:11;;;;;;;11.80;5.47;;;;;;;;;;5066391;28;20052;-62
2021/12/21 06:56:37;;;;;;;14.65;5.25;;;;;;;;;;5068380;28;20057;-62
2021/12/21 06:59:03;;;;;;;14.32;5.72;;;;;;;;;;5066433;28;20049;-62
2021/12/21 07:01:32;;;;;;;17.20;6.47;;;;;;;;;;5057385;28;20152;-62
2021/12/21 07:03:58;;;;;;;14.07;6.03;;;;;;;;;;5054858;28;20053;-61
2021/12/21 07:06:25;;;;;;;14.95;5.93;;;;;;;;;;5059671;28;20063;-62
2021/12/21 07:19:23;;;;;;;11.35;5.28;;;;;;;;;;5066489;28;20148;-61
2021/12/21 07:21:50;;;;;;;16.17;5.60;;;;;;;;;;5065452;28;20053;-62
2021/12/21 07:24:16;;;;;;;16.85;5.68;;;;;;;;;;5065924;28;20048;-61
2021/12/21 07:26:42;;;;;;;17.23;5.85;;;;;;;;;;5066850;28;20106;-62
2021/12/21 07:29:09;;;;;;;13.57;5.70;;;;;;;;;;5063485;28;20056;-61
2021/12/21 07:31:36;;;;;;;19.17;6.85;;;;;;;;;;5066393;28;20052;-62
2021/12/21 07:34:02;;;;;;;18.35;6.57;;;;;;;;;;5067001;28;20063;-62
2021/12/21 07:36:31;;;;;;;14.30;6.47;;;;;;;;;;5070060;28;20498;-62
2021/12/21 07:38:58;;;;;;;19.65;7.07;;;;;;;;;;5068679;28;20063;-61
2021/12/21 07:41:25;;;;;;;19.70;6.78;;;;;;;;;;5070012;28;20620;-62
2021/12/21 07:43:51;;;;;;;18.17;6.60;;;;;;;;;;5054023;28;20064;-63
2021/12/21 07:46:17;;;;;;;18.90;7.65;;;;;;;;;;5069206;28;20126;-61
2021/12/21 07:48:44;;;;;;;16.60;7.18;;;;;;;;;;5069899;28;20056;-61
2021/12/21 07:51:10;;;;;;;18.48;6.95;;;;;;;;;;5068508;28;20049;-62
2021/12/21 07:53:37;;;;;;;13.02;5.78;;;;;;;;;;5062161;28;20147;-63
2021/12/21 07:56:03;;;;;;;15.10;5.22;;;;;;;;;;5070419;28;20135;-62
2021/12/21 07:58:31;;;;;;;21.02;6.30;;;;;;;;;;5070848;28;20068;-61
2021/12/21 08:00:58;;;;;;;14.60;5.47;;;;;;;;;;5066751;28;20507;-61
2021/12/21 08:03:25;;;;;;;16.23;7.03;;;;;;;;;;5065360;28;20056;-62
2021/12/21 08:05:54;;;;;;;13.05;6.35;;;;;;;;;;5068148;28;20569;-62
2021/12/21 08:08:23;;;;;;;14.45;6.35;;;;;;;;;;5051886;28;20056;-62
2021/12/21 08:10:53;;;;;;;;;;;;;;;;;;5060082;28;20057;-60
2021/12/21 08:13:20;;;;;;;13.93;6.15;;;;;;;;;;5049306;28;45802;-60
2021/12/21 08:15:47;;;;;;;15.70;6.30;;;;;;;;;;5057058;28;20057;-62
2021/12/21 08:18:14;;;;;;;17.00;6.72;;;;;;;;;;5070599;28;20081;-62
2021/12/21 08:20:40;;;;;;;18.75;6.25;;;;;;;;;;5058766;28;20080;-62
2021/12/21 08:23:07;;;;;;;22.73;6.88;;;;;;;;;;5070890;28;20049;-62
2021/12/21 08:25:34;;;;;;;16.05;6.72;;;;;;;;;;5070410;28;20079;-62
2021/12/21 08:28:06;;;;;;;14.50;6.93;;;;;;;;;;5064448;28;20064;-61
2021/12/21 08:30:33;;;;;;;24.52;7.82;;;;;;;;;;5068026;28;20049;-61
2021/12/21 08:32:59;;;;;;;15.88;7.93;;;;;;;;;;5056827;28;20061;-63
2021/12/21 08:35:27;;;;;;;24.23;7.63;;;;;;;;;;5049610;28;20057;-62
2021/12/21 08:38:00;;;;;;;22.02;7.78;;;;;;;;;;5049891;28;20529;-62
2021/12/21 08:40:26;;;;;;;13.23;6.93;;;;;;;;;;5049810;28;20059;-61
2021/12/21 08:42:52;;;;;;;18.80;7.70;;;;;;;;;;5056295;28;20088;-62
2021/12/21 08:45:19;;;;;;;15.95;6.72;;;;;;;;;;5058111;28;20087;-62
2021/12/21 08:47:45;;;;;;;18.67;7.47;;;;;;;;;;5068620;28;20055;-62
2021/12/21 08:50:13;;;;;;;19.38;6.95;;;;;;;;;;5069723;28;20140;-62
2021/12/21 08:52:39;;;;;;;13.70;6.20;;;;;;;;;;5069173;28;20067;-62
2021/12/21 08:55:07;;;;;;;17.75;7.05;;;;;;;;;;5058345;28;20179;-62
2021/12/21 08:57:33;;;;;;;14.98;6.07;;;;;;;;;;5069992;28;20052;-62
2021/12/21 09:00:00;;;;;;;20.58;7.30;;;;;;;;;;5055420;28;20061;-62
2021/12/21 09:02:31;;;;;;;15.77;6.95;;;;;;;;;;5053526;28;20053;-62
2021/12/21 09:04:58;;;;;;;18.25;7.13;;;;;;;;;;5053312;28;20112;-62
2021/12/21 09:07:24;;;;;;;15.57;7.70;;;;;;;;;;5056105;28;20103;-62
2021/12/21 09:09:50;;;;;;;20.15;9.07;;;;;;;;;;5069762;28;20058;-61
2021/12/21 09:12:17;;;;;;;27.25;9.77;;;;;;;;;;5066304;28;20053;-63
2021/12/21 09:14:43;;;;;;;27.88;11.10;;;;;;;;;;5049008;28;20053;-63
2021/12/21 09:17:09;;;;;;;27.73;11.18;;;;;;;;;;5069840;28;20868;-63
2021/12/21 09:19:36;;;;;;;22.25;9.57;;;;;;;;;;5064518;28;20111;-63
2021/12/21 09:22:02;;;;;;;28.95;13.02;;;;;;;;;;5068070;28;20049;-63
2021/12/21 09:24:29;;;;;;;32.50;13.82;;;;;;;;;;5069486;28;20049;-63
2021/12/21 09:26:55;;;;;;;30.40;14.90;;;;;;;;;;5069290;28;20053;-63
2021/12/21 09:29:22;;;;;;;28.85;12.95;;;;;;;;;;5068728;28;20409;-63
2021/12/21 09:31:48;;;;;;;25.40;12.52;;;;;;;;;;5068663;28;20147;-63
2021/12/21 09:34:14;;;;;;;25.17;11.73;;;;;;;;;;5068153;28;20114;-63
2021/12/21 09:36:41;;;;;;;24.92;12.00;;;;;;;;;;5066983;28;20057;-62
2021/12/21 09:39:07;;;;;;;26.23;12.82;;;;;;;;;;5060855;28;20606;-61
2021/12/21 09:41:33;;;;;;;26.58;11.25;;;;;;;;;;5067136;28;20057;-62
2021/12/21 09:44:01;;;;;;;25.13;10.73;;;;;;;;;;5067390;28;20052;-62
2021/12/21 09:46:27;;;;;;;26.90;10.55;;;;;;;;;;5069035;28;20151;-63
2021/12/21 09:48:54;;;;;;;27.02;11.45;;;;;;;;;;5066925;28;20041;-63
2021/12/21 09:51:20;;;;;;;23.20;10.73;;;;;;;;;;5069033;28;20123;-63
2021/12/21 09:53:47;;;;;;;21.35;10.18;;;;;;;;;;5066473;28;20133;-63
2021/12/21 09:56:13;;;;;;;27.25;11.55;;;;;;;;;;5066449;28;20057;-63
2021/12/21 09:58:39;;;;;;;29.60;11.48;;;;;;;;;;5062182;28;20511;-63
2021/12/21 10:01:06;;;;;;;21.77;9.68;;;;;;;;;;5063454;28;20057;-63
2021/12/21 10:03:32;;;;;;;27.40;10.70;;;;;;;;;;5070400;28;20084;-63
2021/12/21 10:06:03;;;;;;;21.05;9.88;;;;;;;;;;5077307;28;20076;-63
2021/12/21 10:08:31;;;;;;;20.48;9.75;;;;;;;;;;5068446;28;20055;-63
2021/12/21 10:10:57;;;;;;;25.33;10.07;;;;;;;;;;5068727;28;20059;-63
2021/12/21 10:13:25;;;;;;;21.80;11.30;;;;;;;;;;5068886;28;20084;-63
2021/12/21 10:15:53;;;;;;;33.35;10.73;;;;;;;;;;5066318;28;20051;-63
2021/12/21 10:18:28;;;;;;;20.67;9.02;;;;;;;;;;5056642;28;20059;-63
2021/12/21 10:20:58;;;;;;;26.05;11.65;;;;;;;;;;5068434;28;20057;-63
2021/12/21 10:23:29;;;;;;;26.67;11.05;;;;;;;;;;5052933;28;21243;-64
2021/12/21 10:25:58;;;;;;;26.08;11.40;;;;;;;;;;5068704;28;20057;-64
2021/12/21 10:28:41;;;;;;;26.55;10.82;;;;;;;;;;5068215;28;20053;-62
2021/12/21 10:31:09;;;;;;;26.58;11.70;;;;;;;;;;5067010;28;20063;-62
2021/12/21 10:33:36;;;;;;;27.90;13.33;;;;;;;;;;5069037;28;20096;-62
2021/12/21 10:36:03;;;;;;;23.00;12.23;;;;;;;;;;5067259;28;20276;-62
2021/12/21 10:38:41;;;;;;;31.63;14.63;;;;;;;;;;5067651;28;20140;-62
2021/12/21 10:41:09;;;;;;;28.27;12.13;;;;;;;;;;5067743;28;20045;-61
2021/12/21 10:43:37;;;;;;;28.60;12.75;;;;;;;;;;5065923;28;20422;-63
2021/12/21 10:46:03;;;;;;;30.02;13.63;;;;;;;;;;5066942;28;20056;-63
2021/12/21 10:48:30;;;;;;;29.10;13.98;;;;;;;;;;5064641;28;20060;-62
2021/12/21 10:50:57;;;;;;;28.02;12.52;;;;;;;;;;5056456;28;20081;-62
2021/12/21 10:53:25;;;;;;;32.00;12.60;;;;;;;;;;5064026;28;20154;-62
2021/12/21 10:56:04;;;;;;;29.90;12.52;;;;;;;;;;5066739;28;20059;-61
2021/12/21 10:58:31;;;;;;;29.45;11.90;;;;;;;;;;5067713;28;20138;-61
2021/12/21 11:01:00;;;;;;;29.55;13.65;;;;;;;;;;5059132;28;20516;-61
2021/12/21 11:03:29;;;;;;;26.40;12.68;;;;;;;;;;5066334;28;20049;-61
2021/12/21 11:06:06;;;;;;;30.23;13.35;;;;;;;;;;5067311;28;20057;-62
2021/12/21 11:08:36;;;;;;;24.85;12.15;;;;;;;;;;5068303;28;20153;-62
2021/12/21 11:11:02;;;;;;;31.85;14.45;;;;;;;;;;5051060;28;20131;-61
2021/12/21 11:13:28;;;;;;;26.55;12.35;;;;;;;;;;5053209;28;20061;-61
2021/12/21 11:15:56;;;;;;;32.03;14.05;;;;;;;;;;5050055;28;20048;-62
2021/12/21 11:18:23;;;;;;;28.58;12.45;;;;;;;;;;5060030;28;20151;-62
2021/12/21 11:20:51;;;;;;;30.75;13.52;;;;;;;;;;5070867;28;20060;-62
2021/12/21 11:23:18;;;;;;;31.47;12.20;;;;;;;;;;5067027;28;20135;-62
2021/12/21 11:25:48;;;;;;;26.45;11.95;;;;;;;;;;5053163;28;20077;-61
2021/12/21 11:28:15;;;;;;;27.40;12.50;;;;;;;;;;5059922;28;20151;-61
2021/12/21 11:30:42;;;;;;;31.23;13.20;;;;;;;;;;5070848;28;20845;-61
2021/12/21 11:33:11;;;;;;;27.10;12.68;;;;;;;;;;5070198;28;20111;-61
2021/12/21 11:38:07;;;;;;;24.63;11.27;;;;;;;;;;5069912;28;44241;-61
2021/12/21 11:40:44;;;;;;;31.33;12.35;;;;;;;;;;5070841;28;20135;-61
2021/12/21 11:43:32;;;;;;;31.55;13.07;;;;;;;;;;5069792;28;20043;-61
2021/12/21 11:46:05;;;;;;;26.48;13.07;;;;;;;;;;5071000;28;20060;-61
2021/12/21 11:48:51;;;;;;;28.50;12.65;;;;;;;;;;5067837;28;20057;-61
2021/12/21 11:51:23;;;;;;;26.30;11.32;;;;;;;;;;5058173;28;20080;-61
2021/12/21 11:53:49;;;;;;;27.15;12.95;;;;;;;;;;5063284;28;20135;-61
2021/12/21 11:56:17;;;;;;;27.98;12.45;;;;;;;;;;5056514;28;21362;-61
2021/12/21 11:58:44;;;;;;;22.85;11.10;;;;;;;;;;5062293;28;20054;-60
2021/12/21 12:01:14;;;;;;;24.85;10.85;;;;;;;;;;5060210;28;20064;-61
2021/12/21 12:03:52;;;;;;;25.15;12.15;;;;;;;;;;5059734;28;20057;-61
2021/12/21 12:06:18;;;;;;;28.95;12.10;;;;;;;;;;5063915;28;20049;-62
2021/12/21 12:08:50;;;;;;;28.95;12.02;;;;;;;;;;5068583;28;20053;-62
2021/12/21 12:11:21;;;;;;;26.48;10.48;;;;;;;;;;5069508;28;20045;-62
2021/12/21 12:13:47;;;;;;;29.10;12.10;;;;;;;;;;5054842;28;20088;-62
2021/12/21 12:16:14;;;;;;;26.85;11.63;;;;;;;;;;5062318;28;20061;-61
2021/12/21 12:18:41;;;;;;;22.90;10.02;;;;;;;;;;5061791;28;20050;-59
2021/12/21 12:21:17;;;;;;;24.05;10.75;;;;;;;;;;5078930;28;20115;-60
2021/12/21 12:23:46;;;;;;;27.02;10.35;;;;;;;;;;5066021;28;20393;-61
2021/12/21 12:26:20;;;;;;;21.38;10.43;;;;;;;;;;5080218;28;20052;-60
2021/12/21 12:28:46;;;;;;;24.83;10.85;;;;;;;;;;5064318;28;20059;-60
2021/12/21 12:31:25;;;;;;;21.73;9.80;;;;;;;;;;5063946;28;20056;-61
2021/12/21 12:33:52;;;;;;;24.83;10.48;;;;;;;;;;5062169;28;20192;-61
2021/12/21 12:36:18;;;;;;;20.33;9.43;;;;;;;;;;5064234;28;20063;-61
2021/12/21 12:38:44;;;;;;;22.25;10.18;;;;;;;;;;5070081;28;20547;-61
2021/12/21 12:41:12;;;;;;;19.67;8.80;;;;;;;;;;5069448;28;20076;-61
2021/12/21 12:43:41;;;;;;;18.80;9.32;;;;;;;;;;5070790;28;20045;-62
2021/12/21 12:46:09;;;;;;;22.02;9.77;;;;;;;;;;5057803;28;20088;-61
2021/12/21 12:48:39;;;;;;;22.23;10.10;;;;;;;;;;5074846;28;20052;-61
2021/12/21 12:51:07;;;;;;;19.65;9.35;;;;;;;;;;5067803;28;20065;-61
2021/12/21 12:53:39;;;;;;;24.40;10.55;;;;;;;;;;5065960;28;20061;-61
2021/12/21 12:56:07;;;;;;;24.90;10.85;;;;;;;;;;5064612;28;20045;-61
2021/12/21 12:58:59;;;;;;;22.00;10.32;;;;;;;;;;5066256;28;20151;-61
2021/12/21 13:01:27;;;;;;;27.25;11.90;;;;;;;;;;5064960;28;20053;-61
2021/12/21 13:03:56;;;;;;;24.13;10.55;;;;;;;;;;5063655;28;20510;-61
2021/12/21 13:06:25;;;;;;;31.10;11.07;;;;;;;;;;5067281;28;20049;-61
2021/12/21 13:08:51;;;;;;;26.23;11.60;;;;;;;;;;5067809;28;20067;-62
2021/12/21 13:11:24;;;;;;;23.38;11.27;;;;;;;;;;5072025;28;20076;-62
2021/12/21 13:13:53;;;;;;;21.33;10.35;;;;;;;;;;5077889;28;20057;-62
2021/12/21 13:16:21;;;;;;;25.98;10.95;;;;;;;;;;5072108;28;20167;-61
2021/12/21 13:18:55;;;;;;;28.52;13.05;;;;;;;;;;5070368;28;20059;-61
2021/12/21 13:21:23;;;;;;;31.85;11.45;;;;;;;;;;5077591;28;20511;-61
2021/12/21 13:23:51;;;;;;;24.30;11.20;;;;;;;;;;5060684;28;20106;-62
2021/12/21 13:26:19;;;;;;;23.88;11.73;;;;;;;;;;5076906;28;20175;-61
2021/12/21 13:28:47;;;;;;;24.05;11.45;;;;;;;;;;5076484;28;20057;-61
2021/12/21 13:31:18;;;;;;;26.60;11.63;;;;;;;;;;5084382;28;20118;-61
2021/12/21 13:33:48;;;;;;;25.58;10.40;;;;;;;;;;5069744;28;20052;-61
2021/12/21 13:36:14;;;;;;;19.77;8.10;;;;;;;;;;5069875;28;20927;-61
2021/12/21 13:38:40;;;;;;;18.73;8.55;;;;;;;;;;5081539;28;20155;-61
2021/12/21 13:41:14;;;;;;;18.85;8.80;;;;;;;;;;5065498;28;20180;-61
2021/12/21 13:43:54;;;;;;;22.25;8.68;;;;;;;;;;5078854;28;20514;-61
2021/12/21 13:46:20;;;;;;;18.30;7.82;;;;;;;;;;5068558;28;20059;-61
2021/12/21 13:48:54;;;;;;;23.55;9.48;;;;;;;;;;5075360;28;20056;-61
2021/12/21 13:51:20;;;;;;;21.98;10.02;;;;;;;;;;5069129;28;20053;-61
2021/12/21 13:53:49;;;;;;;18.75;8.77;;;;;;;;;;5070555;28;20078;-61
2021/12/21 13:56:20;;;;;;;26.00;10.90;;;;;;;;;;5069739;28;20063;-62
2021/12/21 13:58:47;;;;;;;19.88;9.85;;;;;;;;;;5076548;28;20724;-61
2021/12/21 14:01:17;;;;;;;18.00;9.68;;;;;;;;;;5068026;28;20485;-61
2021/12/21 14:03:56;;;;;;;28.35;11.15;;;;;;;;;;5081987;28;20080;-61
2021/12/21 14:06:23;;;;;;;26.98;9.68;;;;;;;;;;5066428;28;20063;-61
2021/12/21 14:08:51;;;;;;;22.15;9.13;;;;;;;;;;5078624;28;20061;-61
2021/12/21 14:11:18;;;;;;;22.20;9.27;;;;;;;;;;5061361;28;20053;-61
2021/12/21 14:13:46;;;;;;;18.77;9.35;;;;;;;;;;5064291;28;20536;-61
2021/12/21 14:16:14;;;;;;;23.27;9.90;;;;;;;;;;5068900;28;20675;-61
2021/12/21 14:18:42;;;;;;;22.80;10.05;;;;;;;;;;5064591;28;20059;-61
2021/12/21 14:21:10;;;;;;;19.17;8.35;;;;;;;;;;5060206;28;20057;-61
2021/12/21 14:23:39;;;;;;;19.73;9.03;;;;;;;;;;5073866;28;20057;-61
2021/12/21 14:26:05;;;;;;;;;;;;;;;;;;5067327;28;20278;-61
2021/12/21 14:28:31;;;;;;;21.13;8.52;;;;;;;;;;5075067;28;44676;-61
2021/12/21 14:31:02;;;;;;;20.35;8.00;;;;;;;;;;5067720;28;20057;-61
2021/12/21 14:33:44;;;;;;;21.80;8.50;;;;;;;;;;5058980;28;20256;-61
2021/12/21 14:36:15;;;;;;;18.77;9.02;;;;;;;;;;5068602;28;20503;-61
2021/12/21 14:39:00;;;;;;;16.73;9.05;;;;;;;;;;5077625;28;20086;-61
2021/12/21 14:41:36;;;;;;;17.80;8.65;;;;;;;;;;5068098;28;20060;-61
2021/12/21 14:44:02;;;;;;;21.00;9.55;;;;;;;;;;5073250;28;20048;-61
2021/12/21 14:46:28;;;;;;;21.00;9.43;;;;;;;;;;5075090;28;20537;-62
2021/12/21 14:48:55;;;;;;;18.73;9.52;;;;;;;;;;5046491;28;20516;-61
2021/12/21 14:51:22;;;;;;;18.45;8.57;;;;;;;;;;5070731;28;20530;-62
2021/12/21 14:54:04;;;;;;;20.63;9.15;;;;;;;;;;5064830;28;20602;-62
2021/12/21 14:56:32;;;;;;;20.55;9.07;;;;;;;;;;5061189;28;20093;-62
2021/12/21 14:59:03;;;;;;;21.13;10.00;;;;;;;;;;5067010;28;20046;-62
2021/12/21 15:01:37;;;;;;;19.65;9.52;;;;;;;;;;5071035;28;20538;-63
2021/12/21 15:04:11;;;;;;;23.55;10.18;;;;;;;;;;5076582;28;20045;-61
2021/12/21 15:06:37;;;;;;;21.00;9.50;;;;;;;;;;5061553;28;20053;-62
2021/12/21 15:09:03;;;;;;;19.58;9.05;;;;;;;;;;5071008;28;20052;-65
2021/12/21 15:11:36;;;;;;;19.48;9.73;;;;;;;;;;5078824;28;20483;-64
2021/12/21 15:14:02;;;;;;;20.05;9.57;;;;;;;;;;5066093;28;20049;-64
2021/12/21 15:16:29;;;;;;;21.35;9.45;;;;;;;;;;5072077;28;20057;-66
2021/12/21 15:18:56;;;;;;;21.30;9.27;;;;;;;;;;5063988;28;20052;-62
2021/12/21 15:21:22;;;;;;;18.42;9.02;;;;;;;;;;5061813;28;20149;-65
2021/12/21 15:23:48;;;;;;;20.23;9.02;;;;;;;;;;5086626;28;20458;-63
2021/12/21 15:26:15;;;;;;;20.02;9.10;;;;;;;;;;5068547;28;20052;-62
2021/12/21 15:28:41;;;;;;;19.25;9.48;;;;;;;;;;5077810;28;20053;-62
2021/12/21 15:31:07;;;;;;;17.85;9.32;;;;;;;;;;5067987;28;20049;-62
2021/12/21 15:33:34;;;;;;;19.40;8.68;;;;;;;;;;5072870;28;20142;-62
2021/12/21 15:36:00;;;;;;;22.00;10.02;;;;;;;;;;5067266;28;20053;-62